This is the latest recevied weather packets stored in our database for station/object IW1RID-3. If no packets are shown the sender has not sent any weather packets the latest 10 day(s).
| Time | Temp. | Humidity | Pressure | Rain* | Wind** | Luminosity | Snow |
|---|---|---|---|---|---|---|---|
| 1778317411 | 21.11° C | 51% | 1074.9 hPa | - | - | - | - |
| 1778313789 | 20° C | 57% | 1074.6 hPa | - | - | - | - |
| 1778312585 | 18.89° C | 59% | 1074.8 hPa | - | - | - | - |
| 1778311379 | 17.78° C | 60% | 1075 hPa | - | - | - | - |
| 1778310173 | 16.67° C | 65% | 1075.1 hPa | - | - | - | - |
| 1778308968 | 15.56° C | 70% | 1075.1 hPa | - | - | - | - |
| 1778307762 | 15° C | 71% | 1075.2 hPa | - | - | - | - |
| 1778306558 | 13.89° C | 76% | 1075.1 hPa | - | - | - | - |
| 1778305352 | 13.33° C | 77% | 1074.9 hPa | - | - | - | - |
| 1778304147 | 12.78° C | 78% | 1074.8 hPa | - | - | - | - |
| 1778302941 | 12.78° C | 79% | 1074.7 hPa | - | - | - | - |
| 1778300532 | 12.22° C | 80% | 1074.8 hPa | - | - | - | - |
| 1778299326 | 12.78° C | 80% | 1074.7 hPa | - | - | - | - |
| 1778298121 | 12.22° C | 82% | 1074.6 hPa | - | - | - | - |
| 1778296916 | 12.22° C | 83% | 1074.7 hPa | - | - | - | - |
| 1778295710 | 12.22° C | 82% | 1074.7 hPa | - | - | - | - |
| 1778294503 | 12.22° C | 83% | 1074.9 hPa | - | - | - | - |
| 1778293298 | 12.78° C | 82% | 1074.7 hPa | - | - | - | - |
| 1778292093 | 12.22° C | 83% | 1074.7 hPa | - | - | - | - |
| 1778290888 | 12.78° C | 84% | 1074.7 hPa | - | - | - | - |
| 1778289683 | 12.78° C | 83% | 1074.8 hPa | - | - | - | - |
| 1778288478 | 12.78° C | 81% | 1074.8 hPa | - | - | - | - |
| 1778287273 | 13.33° C | 81% | 1074.9 hPa | - | - | - | - |
| 1778286068 | 13.33° C | 81% | 1074.8 hPa | - | - | - | - |
| 1778284864 | 13.89° C | 79% | 1074.8 hPa | - | - | - | - |
* Rain since midnight (hover to see other rain measurements)
** Current wind speed in m/s (hover to see current wind gust speed)